sensor_id;sensor_type;location;lat;lon;timestamp;temperature;humidity
37788;DHT22;23627;53.302;-6.362;2022-12-18T00:00:31;3.70;99.90
37788;DHT22;23627;53.302;-6.362;2022-12-18T00:02:57;3.70;99.90
37788;DHT22;23627;53.302;-6.362;2022-12-18T00:05:22;3.60;99.90
37788;DHT22;23627;53.302;-6.362;2022-12-18T00:07:48;3.70;99.90
37788;DHT22;23627;53.302;-6.362;2022-12-18T00:10:14;3.60;99.90
37788;DHT22;23627;53.302;-6.362;2022-12-18T00:12:39;3.60;99.90
37788;DHT22;23627;53.302;-6.362;2022-12-18T00:15:05;3.60;99.90
37788;DHT22;23627;53.302;-6.362;2022-12-18T00:17:31;3.60;99.90
37788;DHT22;23627;53.302;-6.362;2022-12-18T00:19:56;3.60;99.90
37788;DHT22;23627;53.302;-6.362;2022-12-18T00:22:22;3.60;99.90
37788;DHT22;23627;53.302;-6.362;2022-12-18T00:24:47;3.60;99.90
37788;DHT22;23627;53.302;-6.362;2022-12-18T00:27:13;3.60;99.90
37788;DHT22;23627;53.302;-6.362;2022-12-18T00:29:39;3.60;99.90
37788;DHT22;23627;53.302;-6.362;2022-12-18T00:32:04;3.60;99.90
37788;DHT22;23627;53.302;-6.362;2022-12-18T00:34:30;3.60;99.90
37788;DHT22;23627;53.302;-6.362;2022-12-18T00:36:55;3.60;99.90
37788;DHT22;23627;53.302;-6.362;2022-12-18T00:39:21;3.60;99.90
37788;DHT22;23627;53.302;-6.362;2022-12-18T00:41:46;3.60;99.90
37788;DHT22;23627;53.302;-6.362;2022-12-18T00:44:31;3.70;99.90
37788;DHT22;23627;53.302;-6.362;2022-12-18T00:46:56;3.70;99.90
37788;DHT22;23627;53.302;-6.362;2022-12-18T00:49:22;3.70;99.90
37788;DHT22;23627;53.302;-6.362;2022-12-18T00:51:48;3.70;99.90
37788;DHT22;23627;53.302;-6.362;2022-12-18T00:54:14;3.70;99.90
37788;DHT22;23627;53.302;-6.362;2022-12-18T00:56:40;3.70;99.90
37788;DHT22;23627;53.302;-6.362;2022-12-18T00:59:06;3.70;99.90
37788;DHT22;23627;53.302;-6.362;2022-12-18T01:01:31;3.70;99.90
37788;DHT22;23627;53.302;-6.362;2022-12-18T01:03:58;3.70;99.90
37788;DHT22;23627;53.302;-6.362;2022-12-18T01:06:24;3.70;99.90
37788;DHT22;23627;53.302;-6.362;2022-12-18T01:08:50;3.70;99.90
37788;DHT22;23627;53.302;-6.362;2022-12-18T01:11:16;3.70;99.90
37788;DHT22;23627;53.302;-6.362;2022-12-18T01:13:42;3.70;99.90
37788;DHT22;23627;53.302;-6.362;2022-12-18T01:16:08;3.70;99.90
37788;DHT22;23627;53.302;-6.362;2022-12-18T01:18:34;3.70;99.90
37788;DHT22;23627;53.302;-6.362;2022-12-18T01:21:00;3.70;99.90
37788;DHT22;23627;53.302;-6.362;2022-12-18T01:23:26;3.70;99.90
37788;DHT22;23627;53.302;-6.362;2022-12-18T01:25:51;3.70;99.90
37788;DHT22;23627;53.302;-6.362;2022-12-18T01:28:17;3.70;99.90
37788;DHT22;23627;53.302;-6.362;2022-12-18T01:30:43;3.80;99.90
37788;DHT22;23627;53.302;-6.362;2022-12-18T01:33:09;3.80;99.90
37788;DHT22;23627;53.302;-6.362;2022-12-18T01:35:44;3.80;99.90
37788;DHT22;23627;53.302;-6.362;2022-12-18T01:38:10;3.80;99.90
37788;DHT22;23627;53.302;-6.362;2022-12-18T01:40:35;3.80;99.90
37788;DHT22;23627;53.302;-6.362;2022-12-18T01:43:01;3.80;99.90
37788;DHT22;23627;53.302;-6.362;2022-12-18T01:45:28;3.90;99.90
37788;DHT22;23627;53.302;-6.362;2022-12-18T01:48:05;3.90;99.90
37788;DHT22;23627;53.302;-6.362;2022-12-18T01:50:38;3.90;99.90
37788;DHT22;23627;53.302;-6.362;2022-12-18T01:55:32;3.90;99.90
37788;DHT22;23627;53.302;-6.362;2022-12-18T01:58:00;4.00;99.90
37788;DHT22;23627;53.302;-6.362;2022-12-18T02:00:26;4.00;99.90
37788;DHT22;23627;53.302;-6.362;2022-12-18T02:02:52;4.00;99.90
37788;DHT22;23627;53.302;-6.362;2022-12-18T02:05:19;4.00;99.90
37788;DHT22;23627;53.302;-6.362;2022-12-18T02:07:51;4.00;99.90
37788;DHT22;23627;53.302;-6.362;2022-12-18T02:10:44;4.00;99.90
37788;DHT22;23627;53.302;-6.362;2022-12-18T02:13:13;4.00;99.90
37788;DHT22;23627;53.302;-6.362;2022-12-18T02:18:38;4.10;99.90
37788;DHT22;23627;53.302;-6.362;2022-12-18T02:26:28;4.10;99.90
37788;DHT22;23627;53.302;-6.362;2022-12-18T02:28:56;4.10;99.90
37788;DHT22;23627;53.302;-6.362;2022-12-18T02:31:25;4.10;99.90
37788;DHT22;23627;53.302;-6.362;2022-12-18T02:33:52;4.10;99.90
37788;DHT22;23627;53.302;-6.362;2022-12-18T02:36:23;4.10;99.90
37788;DHT22;23627;53.302;-6.362;2022-12-18T02:38:49;4.10;99.90
37788;DHT22;23627;53.302;-6.362;2022-12-18T02:41:16;4.10;99.90
37788;DHT22;23627;53.302;-6.362;2022-12-18T02:43:48;4.10;99.90
37788;DHT22;23627;53.302;-6.362;2022-12-18T02:46:25;4.10;99.90
37788;DHT22;23627;53.302;-6.362;2022-12-18T02:48:51;4.10;99.90
37788;DHT22;23627;53.302;-6.362;2022-12-18T02:51:24;4.10;99.90
37788;DHT22;23627;53.302;-6.362;2022-12-18T02:53:56;4.10;99.90
37788;DHT22;23627;53.302;-6.362;2022-12-18T02:56:27;4.10;99.90
37788;DHT22;23627;53.302;-6.362;2022-12-18T02:59:05;4.10;99.90
37788;DHT22;23627;53.302;-6.362;2022-12-18T03:01:37;4.10;99.90
37788;DHT22;23627;53.302;-6.362;2022-12-18T03:04:06;4.10;99.90
37788;DHT22;23627;53.302;-6.362;2022-12-18T03:06:37;4.10;99.90
37788;DHT22;23627;53.302;-6.362;2022-12-18T03:09:09;4.10;99.90
37788;DHT22;23627;53.302;-6.362;2022-12-18T03:11:37;4.10;99.90
37788;DHT22;23627;53.302;-6.362;2022-12-18T03:14:22;4.20;99.90
37788;DHT22;23627;53.302;-6.362;2022-12-18T03:16:49;4.20;99.90
37788;DHT22;23627;53.302;-6.362;2022-12-18T03:19:16;4.20;99.90
37788;DHT22;23627;53.302;-6.362;2022-12-18T03:21:47;4.20;99.90
37788;DHT22;23627;53.302;-6.362;2022-12-18T03:24:14;4.20;99.90
37788;DHT22;23627;53.302;-6.362;2022-12-18T03:26:41;4.20;99.90
37788;DHT22;23627;53.302;-6.362;2022-12-18T03:29:09;4.20;99.90
37788;DHT22;23627;53.302;-6.362;2022-12-18T03:31:35;4.20;99.90
37788;DHT22;23627;53.302;-6.362;2022-12-18T03:34:04;4.20;99.90
37788;DHT22;23627;53.302;-6.362;2022-12-18T03:36:30;4.20;99.90
37788;DHT22;23627;53.302;-6.362;2022-12-18T03:38:56;4.20;99.90
37788;DHT22;23627;53.302;-6.362;2022-12-18T03:48:52;4.30;99.90
37788;DHT22;23627;53.302;-6.362;2022-12-18T03:53:53;4.30;99.90
37788;DHT22;23627;53.302;-6.362;2022-12-18T03:56:21;4.30;99.90
37788;DHT22;23627;53.302;-6.362;2022-12-18T03:58:47;4.30;99.90
37788;DHT22;23627;53.302;-6.362;2022-12-18T04:01:15;4.30;99.90
37788;DHT22;23627;53.302;-6.362;2022-12-18T04:03:41;4.30;99.90
37788;DHT22;23627;53.302;-6.362;2022-12-18T04:06:08;4.30;99.90
37788;DHT22;23627;53.302;-6.362;2022-12-18T04:08:34;4.30;99.90
37788;DHT22;23627;53.302;-6.362;2022-12-18T04:11:00;4.30;99.90
37788;DHT22;23627;53.302;-6.362;2022-12-18T04:13:31;4.30;99.90
37788;DHT22;23627;53.302;-6.362;2022-12-18T04:15:58;4.30;99.90
37788;DHT22;23627;53.302;-6.362;2022-12-18T04:18:23;4.30;99.90
37788;DHT22;23627;53.302;-6.362;2022-12-18T04:20:49;4.40;99.90
37788;DHT22;23627;53.302;-6.362;2022-12-18T04:23:15;4.40;99.90
37788;DHT22;23627;53.302;-6.362;2022-12-18T04:25:40;4.40;99.90
37788;DHT22;23627;53.302;-6.362;2022-12-18T04:28:06;4.40;99.90
37788;DHT22;23627;53.302;-6.362;2022-12-18T04:30:31;4.40;99.90
37788;DHT22;23627;53.302;-6.362;2022-12-18T04:32:57;4.40;99.90
37788;DHT22;23627;53.302;-6.362;2022-12-18T04:35:22;4.40;99.90
37788;DHT22;23627;53.302;-6.362;2022-12-18T04:37:48;4.40;99.90
37788;DHT22;23627;53.302;-6.362;2022-12-18T04:40:14;4.40;99.90
37788;DHT22;23627;53.302;-6.362;2022-12-18T04:42:40;4.40;99.90
37788;DHT22;23627;53.302;-6.362;2022-12-18T04:45:06;4.40;99.90
37788;DHT22;23627;53.302;-6.362;2022-12-18T04:47:32;4.40;99.90
37788;DHT22;23627;53.302;-6.362;2022-12-18T04:49:57;4.40;99.90
37788;DHT22;23627;53.302;-6.362;2022-12-18T04:52:23;4.40;99.90
37788;DHT22;23627;53.302;-6.362;2022-12-18T04:54:49;4.40;99.90
37788;DHT22;23627;53.302;-6.362;2022-12-18T04:57:14;4.40;99.90
37788;DHT22;23627;53.302;-6.362;2022-12-18T04:59:40;4.40;99.90
37788;DHT22;23627;53.302;-6.362;2022-12-18T05:02:06;4.40;99.90
37788;DHT22;23627;53.302;-6.362;2022-12-18T05:04:31;4.50;99.90
37788;DHT22;23627;53.302;-6.362;2022-12-18T05:06:57;4.40;99.90
37788;DHT22;23627;53.302;-6.362;2022-12-18T05:09:23;4.50;99.90
37788;DHT22;23627;53.302;-6.362;2022-12-18T05:11:48;4.50;99.90
37788;DHT22;23627;53.302;-6.362;2022-12-18T05:14:14;4.50;99.90
37788;DHT22;23627;53.302;-6.362;2022-12-18T05:16:40;4.50;99.90
37788;DHT22;23627;53.302;-6.362;2022-12-18T05:19:05;4.50;99.90
37788;DHT22;23627;53.302;-6.362;2022-12-18T05:21:31;4.50;99.90
37788;DHT22;23627;53.302;-6.362;2022-12-18T05:23:56;4.50;99.90
37788;DHT22;23627;53.302;-6.362;2022-12-18T05:26:31;4.50;99.90
37788;DHT22;23627;53.302;-6.362;2022-12-18T05:28:56;4.50;99.90
37788;DHT22;23627;53.302;-6.362;2022-12-18T05:31:22;4.50;99.90
37788;DHT22;23627;53.302;-6.362;2022-12-18T05:33:49;4.50;99.90
37788;DHT22;23627;53.302;-6.362;2022-12-18T05:36:14;4.50;99.90
37788;DHT22;23627;53.302;-6.362;2022-12-18T05:38:40;4.50;99.90
37788;DHT22;23627;53.302;-6.362;2022-12-18T05:41:06;4.50;99.90
37788;DHT22;23627;53.302;-6.362;2022-12-18T05:43:33;4.60;99.90
37788;DHT22;23627;53.302;-6.362;2022-12-18T05:46:02;4.60;99.90
37788;DHT22;23627;53.302;-6.362;2022-12-18T05:48:28;4.60;99.90
37788;DHT22;23627;53.302;-6.362;2022-12-18T05:50:53;4.60;99.90
37788;DHT22;23627;53.302;-6.362;2022-12-18T05:53:19;4.60;99.90
37788;DHT22;23627;53.302;-6.362;2022-12-18T05:55:45;4.60;99.90
37788;DHT22;23627;53.302;-6.362;2022-12-18T05:58:11;4.60;99.90
37788;DHT22;23627;53.302;-6.362;2022-12-18T06:00:38;4.60;99.90
37788;DHT22;23627;53.302;-6.362;2022-12-18T06:03:07;4.60;99.90
37788;DHT22;23627;53.302;-6.362;2022-12-18T06:05:41;4.60;99.90
37788;DHT22;23627;53.302;-6.362;2022-12-18T06:08:06;4.60;99.90
37788;DHT22;23627;53.302;-6.362;2022-12-18T06:10:32;4.60;99.90
37788;DHT22;23627;53.302;-6.362;2022-12-18T06:13:00;4.60;99.90
37788;DHT22;23627;53.302;-6.362;2022-12-18T06:15:25;4.70;99.90
37788;DHT22;23627;53.302;-6.362;2022-12-18T06:17:51;4.70;99.90
37788;DHT22;23627;53.302;-6.362;2022-12-18T06:20:16;4.70;99.90
37788;DHT22;23627;53.302;-6.362;2022-12-18T06:22:42;4.80;99.90
37788;DHT22;23627;53.302;-6.362;2022-12-18T06:25:08;4.80;99.90
37788;DHT22;23627;53.302;-6.362;2022-12-18T06:27:33;4.80;99.90
37788;DHT22;23627;53.302;-6.362;2022-12-18T06:29:59;4.80;99.90
37788;DHT22;23627;53.302;-6.362;2022-12-18T06:32:25;4.90;99.90
37788;DHT22;23627;53.302;-6.362;2022-12-18T06:34:51;4.80;99.90
37788;DHT22;23627;53.302;-6.362;2022-12-18T06:37:16;4.90;99.90
37788;DHT22;23627;53.302;-6.362;2022-12-18T06:39:42;4.90;99.90
37788;DHT22;23627;53.302;-6.362;2022-12-18T06:42:07;4.90;99.90
37788;DHT22;23627;53.302;-6.362;2022-12-18T06:44:33;4.90;99.90
37788;DHT22;23627;53.302;-6.362;2022-12-18T06:46:59;4.90;99.90
37788;DHT22;23627;53.302;-6.362;2022-12-18T06:49:24;4.90;99.90
37788;DHT22;23627;53.302;-6.362;2022-12-18T06:51:50;4.90;99.90
37788;DHT22;23627;53.302;-6.362;2022-12-18T06:54:15;5.00;99.90
37788;DHT22;23627;53.302;-6.362;2022-12-18T06:56:41;5.00;99.90
37788;DHT22;23627;53.302;-6.362;2022-12-18T06:59:07;5.00;99.90
37788;DHT22;23627;53.302;-6.362;2022-12-18T07:01:32;5.00;99.90
37788;DHT22;23627;53.302;-6.362;2022-12-18T07:03:58;5.00;99.90
37788;DHT22;23627;53.302;-6.362;2022-12-18T07:06:24;5.00;99.90
37788;DHT22;23627;53.302;-6.362;2022-12-18T07:08:50;5.00;99.90
37788;DHT22;23627;53.302;-6.362;2022-12-18T07:11:17;5.00;99.90
37788;DHT22;23627;53.302;-6.362;2022-12-18T07:13:43;5.00;99.90
37788;DHT22;23627;53.302;-6.362;2022-12-18T07:16:10;5.00;99.90
37788;DHT22;23627;53.302;-6.362;2022-12-18T07:18:36;5.00;99.90
37788;DHT22;23627;53.302;-6.362;2022-12-18T07:21:03;5.10;99.90
37788;DHT22;23627;53.302;-6.362;2022-12-18T07:23:28;5.10;99.90
37788;DHT22;23627;53.302;-6.362;2022-12-18T07:25:54;5.10;99.90
37788;DHT22;23627;53.302;-6.362;2022-12-18T07:28:19;5.10;99.90
37788;DHT22;23627;53.302;-6.362;2022-12-18T07:30:45;5.00;99.90
37788;DHT22;23627;53.302;-6.362;2022-12-18T07:33:11;5.00;99.90
37788;DHT22;23627;53.302;-6.362;2022-12-18T07:35:36;5.10;99.90
37788;DHT22;23627;53.302;-6.362;2022-12-18T07:38:02;5.10;99.90
37788;DHT22;23627;53.302;-6.362;2022-12-18T07:40:28;5.10;99.90
37788;DHT22;23627;53.302;-6.362;2022-12-18T07:42:53;5.10;99.90
37788;DHT22;23627;53.302;-6.362;2022-12-18T07:45:19;5.10;99.90
37788;DHT22;23627;53.302;-6.362;2022-12-18T07:47:44;5.10;99.90
37788;DHT22;23627;53.302;-6.362;2022-12-18T07:50:10;5.10;99.90
37788;DHT22;23627;53.302;-6.362;2022-12-18T07:52:36;5.10;99.90
37788;DHT22;23627;53.302;-6.362;2022-12-18T07:55:01;5.10;99.90
37788;DHT22;23627;53.302;-6.362;2022-12-18T07:57:27;5.10;99.90
37788;DHT22;23627;53.302;-6.362;2022-12-18T07:59:53;5.10;99.90
37788;DHT22;23627;53.302;-6.362;2022-12-18T08:02:18;5.10;99.90
37788;DHT22;23627;53.302;-6.362;2022-12-18T08:04:44;5.10;99.90
37788;DHT22;23627;53.302;-6.362;2022-12-18T08:07:09;5.10;99.90
37788;DHT22;23627;53.302;-6.362;2022-12-18T08:09:35;5.10;99.90
37788;DHT22;23627;53.302;-6.362;2022-12-18T08:12:01;5.10;99.90
37788;DHT22;23627;53.302;-6.362;2022-12-18T08:14:26;5.10;99.90
37788;DHT22;23627;53.302;-6.362;2022-12-18T08:16:52;5.10;99.90
37788;DHT22;23627;53.302;-6.362;2022-12-18T08:19:17;5.10;99.90
37788;DHT22;23627;53.302;-6.362;2022-12-18T08:21:43;5.10;99.90
37788;DHT22;23627;53.302;-6.362;2022-12-18T08:24:09;5.10;99.90
37788;DHT22;23627;53.302;-6.362;2022-12-18T08:26:34;5.10;99.90
37788;DHT22;23627;53.302;-6.362;2022-12-18T08:29:00;5.10;99.90
37788;DHT22;23627;53.302;-6.362;2022-12-18T08:31:26;5.10;99.90
37788;DHT22;23627;53.302;-6.362;2022-12-18T08:33:52;5.10;99.90
37788;DHT22;23627;53.302;-6.362;2022-12-18T08:36:19;5.10;99.90
37788;DHT22;23627;53.302;-6.362;2022-12-18T08:38:45;5.10;99.90
37788;DHT22;23627;53.302;-6.362;2022-12-18T08:41:11;5.10;99.90
37788;DHT22;23627;53.302;-6.362;2022-12-18T08:43:37;5.10;99.90
37788;DHT22;23627;53.302;-6.362;2022-12-18T08:46:22;5.10;99.90
37788;DHT22;23627;53.302;-6.362;2022-12-18T08:48:50;5.10;99.90
37788;DHT22;23627;53.302;-6.362;2022-12-18T08:51:16;5.10;99.90
37788;DHT22;23627;53.302;-6.362;2022-12-18T08:53:42;5.10;99.90
37788;DHT22;23627;53.302;-6.362;2022-12-18T08:56:08;5.10;99.90
37788;DHT22;23627;53.302;-6.362;2022-12-18T08:58:34;5.10;99.90
37788;DHT22;23627;53.302;-6.362;2022-12-18T09:01:00;5.10;99.90
37788;DHT22;23627;53.302;-6.362;2022-12-18T09:03:27;5.10;99.90
37788;DHT22;23627;53.302;-6.362;2022-12-18T09:05:52;5.10;99.90
37788;DHT22;23627;53.302;-6.362;2022-12-18T09:08:18;5.10;99.90
37788;DHT22;23627;53.302;-6.362;2022-12-18T09:10:44;5.10;99.90
37788;DHT22;23627;53.302;-6.362;2022-12-18T09:13:10;5.10;99.90
37788;DHT22;23627;53.302;-6.362;2022-12-18T09:15:43;5.20;99.90
37788;DHT22;23627;53.302;-6.362;2022-12-18T09:18:10;5.10;99.90
37788;DHT22;23627;53.302;-6.362;2022-12-18T09:20:36;5.20;99.90
37788;DHT22;23627;53.302;-6.362;2022-12-18T09:23:02;5.20;99.90
37788;DHT22;23627;53.302;-6.362;2022-12-18T09:25:29;5.20;99.90
37788;DHT22;23627;53.302;-6.362;2022-12-18T09:28:05;5.20;99.90
37788;DHT22;23627;53.302;-6.362;2022-12-18T09:30:31;5.30;99.90
37788;DHT22;23627;53.302;-6.362;2022-12-18T09:32:58;5.20;99.90
37788;DHT22;23627;53.302;-6.362;2022-12-18T09:35:24;5.30;99.90
37788;DHT22;23627;53.302;-6.362;2022-12-18T09:37:50;5.30;99.90
37788;DHT22;23627;53.302;-6.362;2022-12-18T09:40:21;5.30;99.90
37788;DHT22;23627;53.302;-6.362;2022-12-18T09:42:49;5.30;99.90
37788;DHT22;23627;53.302;-6.362;2022-12-18T09:45:17;5.40;99.90
37788;DHT22;23627;53.302;-6.362;2022-12-18T09:47:43;5.40;99.90
37788;DHT22;23627;53.302;-6.362;2022-12-18T09:50:52;5.40;99.90
37788;DHT22;23627;53.302;-6.362;2022-12-18T09:52:59;5.40;99.90
37788;DHT22;23627;53.302;-6.362;2022-12-18T09:57:59;5.50;99.90
37788;DHT22;23627;53.302;-6.362;2022-12-18T10:00:27;5.50;99.90
37788;DHT22;23627;53.302;-6.362;2022-12-18T10:02:56;5.60;99.90
37788;DHT22;23627;53.302;-6.362;2022-12-18T10:05:31;5.60;99.90
37788;DHT22;23627;53.302;-6.362;2022-12-18T10:08:01;5.60;99.90
37788;DHT22;23627;53.302;-6.362;2022-12-18T10:12:56;5.70;99.90
37788;DHT22;23627;53.302;-6.362;2022-12-18T10:15:34;5.70;99.90
37788;DHT22;23627;53.302;-6.362;2022-12-18T10:18:14;5.70;99.90
37788;DHT22;23627;53.302;-6.362;2022-12-18T10:20:43;5.70;99.90
37788;DHT22;23627;53.302;-6.362;2022-12-18T10:23:45;5.80;99.90
37788;DHT22;23627;53.302;-6.362;2022-12-18T10:26:11;5.80;99.90
37788;DHT22;23627;53.302;-6.362;2022-12-18T10:28:40;5.80;99.90
37788;DHT22;23627;53.302;-6.362;2022-12-18T10:31:06;5.80;99.90
37788;DHT22;23627;53.302;-6.362;2022-12-18T10:33:33;5.80;99.90
37788;DHT22;23627;53.302;-6.362;2022-12-18T10:35:59;5.90;99.90
37788;DHT22;23627;53.302;-6.362;2022-12-18T10:38:26;5.90;99.90
37788;DHT22;23627;53.302;-6.362;2022-12-18T10:43:22;5.90;99.90
37788;DHT22;23627;53.302;-6.362;2022-12-18T10:45:59;5.90;99.90
37788;DHT22;23627;53.302;-6.362;2022-12-18T10:48:25;5.90;99.90
37788;DHT22;23627;53.302;-6.362;2022-12-18T10:50:51;5.90;99.90
37788;DHT22;23627;53.302;-6.362;2022-12-18T10:53:19;5.90;99.90
37788;DHT22;23627;53.302;-6.362;2022-12-18T10:55:45;5.90;99.90
37788;DHT22;23627;53.302;-6.362;2022-12-18T11:01:04;5.90;99.90
37788;DHT22;23627;53.302;-6.362;2022-12-18T11:03:40;5.90;99.90
37788;DHT22;23627;53.302;-6.362;2022-12-18T11:08:31;5.90;99.90
37788;DHT22;23627;53.302;-6.362;2022-12-18T11:10:57;5.90;99.90
37788;DHT22;23627;53.302;-6.362;2022-12-18T11:13:23;6.00;99.90
37788;DHT22;23627;53.302;-6.362;2022-12-18T11:15:50;6.00;99.90
37788;DHT22;23627;53.302;-6.362;2022-12-18T11:18:20;6.00;99.90
37788;DHT22;23627;53.302;-6.362;2022-12-18T11:20:51;6.00;99.90
37788;DHT22;23627;53.302;-6.362;2022-12-18T11:23:18;6.00;99.90
37788;DHT22;23627;53.302;-6.362;2022-12-18T11:25:50;6.10;99.90
37788;DHT22;23627;53.302;-6.362;2022-12-18T11:28:37;6.10;99.90
37788;DHT22;23627;53.302;-6.362;2022-12-18T11:33:56;6.20;99.90
37788;DHT22;23627;53.302;-6.362;2022-12-18T11:36:23;6.20;99.90
37788;DHT22;23627;53.302;-6.362;2022-12-18T11:38:49;6.20;99.90
37788;DHT22;23627;53.302;-6.362;2022-12-18T11:41:27;6.30;99.90
37788;DHT22;23627;53.302;-6.362;2022-12-18T11:44:26;6.30;99.90
37788;DHT22;23627;53.302;-6.362;2022-12-18T11:46:59;6.40;99.90
37788;DHT22;23627;53.302;-6.362;2022-12-18T11:49:27;6.40;99.90
37788;DHT22;23627;53.302;-6.362;2022-12-18T11:54:19;6.50;99.90
37788;DHT22;23627;53.302;-6.362;2022-12-18T11:56:46;6.50;99.90
37788;DHT22;23627;53.302;-6.362;2022-12-18T12:05:05;6.60;99.90
37788;DHT22;23627;53.302;-6.362;2022-12-18T12:10:10;6.60;99.90
37788;DHT22;23627;53.302;-6.362;2022-12-18T12:12:43;6.70;99.90
37788;DHT22;23627;53.302;-6.362;2022-12-18T12:17:52;6.70;99.90
37788;DHT22;23627;53.302;-6.362;2022-12-18T12:37:01;7.00;99.90
37788;DHT22;23627;53.302;-6.362;2022-12-18T12:39:01;7.00;99.90
37788;DHT22;23627;53.302;-6.362;2022-12-18T12:41:31;7.10;99.90
37788;DHT22;23627;53.302;-6.362;2022-12-18T12:44:17;7.10;99.90
37788;DHT22;23627;53.302;-6.362;2022-12-18T12:46:43;7.10;99.90
37788;DHT22;23627;53.302;-6.362;2022-12-18T12:49:17;7.20;99.90
37788;DHT22;23627;53.302;-6.362;2022-12-18T12:51:44;7.20;99.90
37788;DHT22;23627;53.302;-6.362;2022-12-18T12:54:29;7.30;99.90
37788;DHT22;23627;53.302;-6.362;2022-12-18T12:57:02;7.30;99.90
37788;DHT22;23627;53.302;-6.362;2022-12-18T12:59:44;7.30;99.90
37788;DHT22;23627;53.302;-6.362;2022-12-18T13:04:42;7.40;99.90
37788;DHT22;23627;53.302;-6.362;2022-12-18T13:07:20;7.40;99.90
37788;DHT22;23627;53.302;-6.362;2022-12-18T13:12:34;7.40;99.90
37788;DHT22;23627;53.302;-6.362;2022-12-18T13:16:03;7.50;99.90
37788;DHT22;23627;53.302;-6.362;2022-12-18T13:18:15;7.50;99.90
37788;DHT22;23627;53.302;-6.362;2022-12-18T13:20:45;7.50;99.90
37788;DHT22;23627;53.302;-6.362;2022-12-18T13:25:50;7.60;99.90
37788;DHT22;23627;53.302;-6.362;2022-12-18T13:28:16;7.60;99.90
37788;DHT22;23627;53.302;-6.362;2022-12-18T13:30:43;7.60;99.90
37788;DHT22;23627;53.302;-6.362;2022-12-18T13:43:32;7.90;99.90
37788;DHT22;23627;53.302;-6.362;2022-12-18T13:48:26;7.90;99.90
37788;DHT22;23627;53.302;-6.362;2022-12-18T13:50:53;7.90;99.90
37788;DHT22;23627;53.302;-6.362;2022-12-18T13:53:25;7.90;99.90
37788;DHT22;23627;53.302;-6.362;2022-12-18T13:55:55;7.90;99.90
37788;DHT22;23627;53.302;-6.362;2022-12-18T13:58:35;7.90;99.90
37788;DHT22;23627;53.302;-6.362;2022-12-18T14:01:01;8.00;99.90
37788;DHT22;23627;53.302;-6.362;2022-12-18T14:03:29;8.00;99.90
37788;DHT22;23627;53.302;-6.362;2022-12-18T14:05:56;8.00;99.90
37788;DHT22;23627;53.302;-6.362;2022-12-18T14:08:32;8.00;99.90
37788;DHT22;23627;53.302;-6.362;2022-12-18T14:10:58;8.00;99.90
37788;DHT22;23627;53.302;-6.362;2022-12-18T14:13:26;8.00;99.90
37788;DHT22;23627;53.302;-6.362;2022-12-18T14:15:54;8.00;99.90
37788;DHT22;23627;53.302;-6.362;2022-12-18T14:18:44;8.10;99.90
37788;DHT22;23627;53.302;-6.362;2022-12-18T14:21:18;8.00;99.90
37788;DHT22;23627;53.302;-6.362;2022-12-18T14:23:45;8.00;99.90
37788;DHT22;23627;53.302;-6.362;2022-12-18T14:26:27;8.10;99.90
37788;DHT22;23627;53.302;-6.362;2022-12-18T14:28:58;8.10;99.90
37788;DHT22;23627;53.302;-6.362;2022-12-18T14:31:25;8.10;99.90
37788;DHT22;23627;53.302;-6.362;2022-12-18T14:33:51;8.10;99.90
37788;DHT22;23627;53.302;-6.362;2022-12-18T14:36:17;8.00;99.90
37788;DHT22;23627;53.302;-6.362;2022-12-18T14:38:43;8.00;99.90
37788;DHT22;23627;53.302;-6.362;2022-12-18T14:41:13;8.10;99.90
37788;DHT22;23627;53.302;-6.362;2022-12-18T14:43:40;8.00;99.90
37788;DHT22;23627;53.302;-6.362;2022-12-18T14:46:26;8.00;99.90
37788;DHT22;23627;53.302;-6.362;2022-12-18T14:48:52;8.00;99.90
37788;DHT22;23627;53.302;-6.362;2022-12-18T14:51:22;8.00;99.90
37788;DHT22;23627;53.302;-6.362;2022-12-18T14:53:51;8.00;99.90
37788;DHT22;23627;53.302;-6.362;2022-12-18T14:58:47;8.00;99.90
37788;DHT22;23627;53.302;-6.362;2022-12-18T15:01:18;8.00;99.90
37788;DHT22;23627;53.302;-6.362;2022-12-18T15:03:43;8.00;99.90
37788;DHT22;23627;53.302;-6.362;2022-12-18T15:06:16;8.00;99.90
37788;DHT22;23627;53.302;-6.362;2022-12-18T15:08:42;8.00;99.90
37788;DHT22;23627;53.302;-6.362;2022-12-18T15:11:25;8.00;99.90
37788;DHT22;23627;53.302;-6.362;2022-12-18T15:13:51;8.00;99.90
37788;DHT22;23627;53.302;-6.362;2022-12-18T15:16:16;8.00;99.90
37788;DHT22;23627;53.302;-6.362;2022-12-18T15:18:42;8.00;99.90
37788;DHT22;23627;53.302;-6.362;2022-12-18T15:21:10;8.00;99.90
37788;DHT22;23627;53.302;-6.362;2022-12-18T15:26:08;8.00;99.90
37788;DHT22;23627;53.302;-6.362;2022-12-18T15:28:51;8.00;99.90
37788;DHT22;23627;53.302;-6.362;2022-12-18T15:31:22;8.00;99.90
37788;DHT22;23627;53.302;-6.362;2022-12-18T15:36:18;8.00;99.90
37788;DHT22;23627;53.302;-6.362;2022-12-18T15:38:48;8.00;99.90
37788;DHT22;23627;53.302;-6.362;2022-12-18T15:41:14;8.00;99.90
37788;DHT22;23627;53.302;-6.362;2022-12-18T15:43:40;7.90;99.90
37788;DHT22;23627;53.302;-6.362;2022-12-18T15:46:06;7.90;99.90
37788;DHT22;23627;53.302;-6.362;2022-12-18T15:48:34;7.90;99.90
37788;DHT22;23627;53.302;-6.362;2022-12-18T15:51:00;7.90;99.90
37788;DHT22;23627;53.302;-6.362;2022-12-18T15:53:30;7.90;99.90
37788;DHT22;23627;53.302;-6.362;2022-12-18T15:55:57;7.90;99.90
37788;DHT22;23627;53.302;-6.362;2022-12-18T15:58:42;7.90;99.90
37788;DHT22;23627;53.302;-6.362;2022-12-18T16:01:08;7.90;99.90
37788;DHT22;23627;53.302;-6.362;2022-12-18T16:03:34;7.90;99.90
37788;DHT22;23627;53.302;-6.362;2022-12-18T16:05:59;7.90;99.90
37788;DHT22;23627;53.302;-6.362;2022-12-18T16:08:28;7.80;99.90
37788;DHT22;23627;53.302;-6.362;2022-12-18T16:10:54;7.90;99.90
37788;DHT22;23627;53.302;-6.362;2022-12-18T16:13:20;7.80;99.90
37788;DHT22;23627;53.302;-6.362;2022-12-18T16:15:45;7.80;99.90
37788;DHT22;23627;53.302;-6.362;2022-12-18T16:18:11;7.80;99.90
37788;DHT22;23627;53.302;-6.362;2022-12-18T16:20:36;7.80;99.90
37788;DHT22;23627;53.302;-6.362;2022-12-18T16:23:03;7.80;99.90
37788;DHT22;23627;53.302;-6.362;2022-12-18T16:25:29;7.80;99.90
37788;DHT22;23627;53.302;-6.362;2022-12-18T16:27:55;7.80;99.90
37788;DHT22;23627;53.302;-6.362;2022-12-18T16:30:22;7.80;99.90
37788;DHT22;23627;53.302;-6.362;2022-12-18T16:32:48;7.80;99.90
37788;DHT22;23627;53.302;-6.362;2022-12-18T16:35:15;7.80;99.90
37788;DHT22;23627;53.302;-6.362;2022-12-18T16:37:41;7.80;99.90
37788;DHT22;23627;53.302;-6.362;2022-12-18T16:40:07;7.80;99.90
37788;DHT22;23627;53.302;-6.362;2022-12-18T16:42:34;7.80;99.90
37788;DHT22;23627;53.302;-6.362;2022-12-18T16:45:00;7.80;99.90
37788;DHT22;23627;53.302;-6.362;2022-12-18T16:47:26;7.80;99.90
37788;DHT22;23627;53.302;-6.362;2022-12-18T16:49:51;7.70;99.90
37788;DHT22;23627;53.302;-6.362;2022-12-18T16:52:17;7.80;99.90
37788;DHT22;23627;53.302;-6.362;2022-12-18T16:54:43;7.80;99.90
37788;DHT22;23627;53.302;-6.362;2022-12-18T16:57:09;7.80;99.90
37788;DHT22;23627;53.302;-6.362;2022-12-18T16:59:37;7.80;99.90
37788;DHT22;23627;53.302;-6.362;2022-12-18T17:02:02;7.80;99.90
37788;DHT22;23627;53.302;-6.362;2022-12-18T17:04:28;7.80;99.90
37788;DHT22;23627;53.302;-6.362;2022-12-18T17:06:54;7.80;99.90
37788;DHT22;23627;53.302;-6.362;2022-12-18T17:09:20;7.80;99.90